sensor_id;sensor_type;location;lat;lon;timestamp;P1;durP1;ratioP1;P2;durP2;ratioP2
70908;SDS011;58554;52.006;5.926;2023-02-23T00:01:11;83.90;;;31.77;;
70908;SDS011;58554;52.006;5.926;2023-02-23T00:03:40;77.17;;;31.10;;
70908;SDS011;58554;52.006;5.926;2023-02-23T01:13:42;75.93;;;28.10;;
70908;SDS011;58554;52.006;5.926;2023-02-23T01:16:10;73.40;;;29.13;;
70908;SDS011;58554;52.006;5.926;2023-02-23T01:18:40;82.40;;;29.90;;
70908;SDS011;58554;52.006;5.926;2023-02-23T01:21:12;75.07;;;28.92;;
70908;SDS011;58554;52.006;5.926;2023-02-23T01:23:41;78.40;;;30.77;;
70908;SDS011;58554;52.006;5.926;2023-02-23T01:26:13;77.90;;;29.80;;
70908;SDS011;58554;52.006;5.926;2023-02-23T01:28:46;86.30;;;31.37;;
70908;SDS011;58554;52.006;5.926;2023-02-23T01:31:14;79.85;;;30.08;;
70908;SDS011;58554;52.006;5.926;2023-02-23T01:33:41;75.70;;;30.30;;
70908;SDS011;58554;52.006;5.926;2023-02-23T01:36:07;75.53;;;29.20;;
70908;SDS011;58554;52.006;5.926;2023-02-23T01:38:34;79.32;;;28.52;;
70908;SDS011;58554;52.006;5.926;2023-02-23T01:41:01;80.87;;;28.90;;
70908;SDS011;58554;52.006;5.926;2023-02-23T01:43:28;76.18;;;28.88;;
70908;SDS011;58554;52.006;5.926;2023-02-23T01:45:57;72.70;;;30.10;;
70908;SDS011;58554;52.006;5.926;2023-02-23T01:48:25;76.47;;;28.87;;
70908;SDS011;58554;52.006;5.926;2023-02-23T01:50:56;68.90;;;26.80;;
70908;SDS011;58554;52.006;5.926;2023-02-23T01:53:29;71.30;;;27.90;;
70908;SDS011;58554;52.006;5.926;2023-02-23T01:56:02;76.57;;;28.97;;
70908;SDS011;58554;52.006;5.926;2023-02-23T01:58:35;75.05;;;28.13;;
70908;SDS011;58554;52.006;5.926;2023-02-23T02:01:08;73.22;;;29.40;;
70908;SDS011;58554;52.006;5.926;2023-02-23T02:03:37;74.07;;;28.77;;
70908;SDS011;58554;52.006;5.926;2023-02-23T02:06:08;75.45;;;27.85;;
70908;SDS011;58554;52.006;5.926;2023-02-23T02:08:41;65.47;;;26.70;;
70908;SDS011;58554;52.006;5.926;2023-02-23T02:11:13;75.33;;;27.83;;
70908;SDS011;58554;52.006;5.926;2023-02-23T02:13:42;75.85;;;27.75;;
70908;SDS011;58554;52.006;5.926;2023-02-23T02:16:16;70.40;;;27.63;;
70908;SDS011;58554;52.006;5.926;2023-02-23T02:19:16;75.90;;;27.65;;
70908;SDS011;58554;52.006;5.926;2023-02-23T02:22:16;65.60;;;25.15;;
70908;SDS011;58554;52.006;5.926;2023-02-23T02:25:19;62.77;;;26.30;;
70908;SDS011;58554;52.006;5.926;2023-02-23T02:28:24;65.45;;;26.33;;
70908;SDS011;58554;52.006;5.926;2023-02-23T02:34:25;66.73;;;24.97;;
70908;SDS011;58554;52.006;5.926;2023-02-23T02:37:38;62.80;;;24.75;;
70908;SDS011;58554;52.006;5.926;2023-02-23T02:40:20;70.90;;;27.02;;
70908;SDS011;58554;52.006;5.926;2023-02-23T02:42:58;71.97;;;26.50;;
70908;SDS011;58554;52.006;5.926;2023-02-23T02:45:32;70.53;;;27.10;;
70908;SDS011;58554;52.006;5.926;2023-02-23T02:48:15;76.30;;;27.00;;
70908;SDS011;58554;52.006;5.926;2023-02-23T02:50:54;65.53;;;25.40;;
70908;SDS011;58554;52.006;5.926;2023-02-23T02:53:35;66.93;;;25.58;;
70908;SDS011;58554;52.006;5.926;2023-02-23T02:56:10;68.28;;;26.05;;
70908;SDS011;58554;52.006;5.926;2023-02-23T02:58:43;70.90;;;27.23;;
70908;SDS011;58554;52.006;5.926;2023-02-23T03:01:11;64.60;;;25.08;;
70908;SDS011;58554;52.006;5.926;2023-02-23T03:03:41;72.78;;;27.38;;
70908;SDS011;58554;52.006;5.926;2023-02-23T03:06:12;68.40;;;26.43;;
70908;SDS011;58554;52.006;5.926;2023-02-23T03:08:43;68.63;;;26.13;;
70908;SDS011;58554;52.006;5.926;2023-02-23T03:11:26;66.22;;;25.73;;
70908;SDS011;58554;52.006;5.926;2023-02-23T03:14:09;71.07;;;26.30;;
70908;SDS011;58554;52.006;5.926;2023-02-23T03:16:55;65.63;;;26.47;;
70908;SDS011;58554;52.006;5.926;2023-02-23T03:19:37;71.65;;;26.92;;
70908;SDS011;58554;52.006;5.926;2023-02-23T03:22:20;65.50;;;25.80;;
70908;SDS011;58554;52.006;5.926;2023-02-23T03:24:59;68.47;;;25.50;;
70908;SDS011;58554;52.006;5.926;2023-02-23T03:27:37;66.18;;;26.02;;
70908;SDS011;58554;52.006;5.926;2023-02-23T03:30:15;67.38;;;26.83;;
70908;SDS011;58554;52.006;5.926;2023-02-23T03:32:51;71.77;;;27.03;;
70908;SDS011;58554;52.006;5.926;2023-02-23T03:35:26;66.87;;;26.27;;
70908;SDS011;58554;52.006;5.926;2023-02-23T03:38:05;66.22;;;25.15;;
70908;SDS011;58554;52.006;5.926;2023-02-23T03:40:41;68.87;;;27.00;;
70908;SDS011;58554;52.006;5.926;2023-02-23T03:43:16;63.87;;;25.73;;
70908;SDS011;58554;52.006;5.926;2023-02-23T03:45:48;68.68;;;26.27;;
70908;SDS011;58554;52.006;5.926;2023-02-23T03:48:17;67.37;;;25.97;;
70908;SDS011;58554;52.006;5.926;2023-02-23T03:50:51;65.75;;;25.23;;
70908;SDS011;58554;52.006;5.926;2023-02-23T03:53:26;68.95;;;25.25;;
70908;SDS011;58554;52.006;5.926;2023-02-23T03:56:03;68.80;;;26.60;;
70908;SDS011;58554;52.006;5.926;2023-02-23T03:58:35;69.07;;;25.73;;
70908;SDS011;58554;52.006;5.926;2023-02-23T04:01:07;71.70;;;26.97;;
70908;SDS011;58554;52.006;5.926;2023-02-23T04:03:37;63.77;;;25.53;;
70908;SDS011;58554;52.006;5.926;2023-02-23T04:06:10;67.93;;;25.70;;
70908;SDS011;58554;52.006;5.926;2023-02-23T04:08:43;65.10;;;25.33;;
70908;SDS011;58554;52.006;5.926;2023-02-23T04:11:14;69.63;;;26.57;;
70908;SDS011;58554;52.006;5.926;2023-02-23T04:13:53;70.72;;;27.23;;
70908;SDS011;58554;52.006;5.926;2023-02-23T04:16:28;65.13;;;24.93;;
70908;SDS011;58554;52.006;5.926;2023-02-23T04:18:58;65.80;;;26.38;;
70908;SDS011;58554;52.006;5.926;2023-02-23T04:21:24;72.32;;;27.33;;
70908;SDS011;58554;52.006;5.926;2023-02-23T04:23:51;69.13;;;26.67;;
70908;SDS011;58554;52.006;5.926;2023-02-23T04:26:20;68.13;;;26.08;;
70908;SDS011;58554;52.006;5.926;2023-02-23T04:28:46;70.40;;;27.02;;
70908;SDS011;58554;52.006;5.926;2023-02-23T04:31:13;68.73;;;25.80;;
70908;SDS011;58554;52.006;5.926;2023-02-23T04:33:39;67.63;;;27.55;;
70908;SDS011;58554;52.006;5.926;2023-02-23T04:36:06;72.35;;;27.17;;
70908;SDS011;58554;52.006;5.926;2023-02-23T04:38:33;71.57;;;26.03;;
70908;SDS011;58554;52.006;5.926;2023-02-23T04:40:59;76.95;;;27.63;;
70908;SDS011;58554;52.006;5.926;2023-02-23T04:43:28;73.55;;;27.23;;
70908;SDS011;58554;52.006;5.926;2023-02-23T04:45:55;63.83;;;26.00;;
70908;SDS011;58554;52.006;5.926;2023-02-23T04:48:21;72.07;;;27.30;;
70908;SDS011;58554;52.006;5.926;2023-02-23T04:50:50;74.63;;;27.65;;
70908;SDS011;58554;52.006;5.926;2023-02-23T04:53:18;67.50;;;25.20;;
70908;SDS011;58554;52.006;5.926;2023-02-23T04:55:44;69.55;;;26.85;;
70908;SDS011;58554;52.006;5.926;2023-02-23T04:58:11;70.27;;;26.00;;
70908;SDS011;58554;52.006;5.926;2023-02-23T05:00:40;73.90;;;25.77;;
70908;SDS011;58554;52.006;5.926;2023-02-23T05:03:07;70.45;;;26.50;;
70908;SDS011;58554;52.006;5.926;2023-02-23T05:05:33;69.80;;;24.93;;
70908;SDS011;58554;52.006;5.926;2023-02-23T05:08:00;70.75;;;26.23;;
70908;SDS011;58554;52.006;5.926;2023-02-23T05:10:26;66.50;;;26.45;;
70908;SDS011;58554;52.006;5.926;2023-02-23T05:12:53;67.50;;;25.30;;
70908;SDS011;58554;52.006;5.926;2023-02-23T05:15:19;68.80;;;25.27;;
70908;SDS011;58554;52.006;5.926;2023-02-23T05:17:48;68.50;;;25.77;;
70908;SDS011;58554;52.006;5.926;2023-02-23T05:20:15;68.33;;;25.07;;
70908;SDS011;58554;52.006;5.926;2023-02-23T05:22:41;69.45;;;26.48;;
70908;SDS011;58554;52.006;5.926;2023-02-23T05:25:08;70.57;;;25.80;;
70908;SDS011;58554;52.006;5.926;2023-02-23T05:27:35;70.95;;;25.30;;
70908;SDS011;58554;52.006;5.926;2023-02-23T05:30:02;68.85;;;25.75;;
70908;SDS011;58554;52.006;5.926;2023-02-23T05:32:30;63.83;;;24.17;;
70908;SDS011;58554;52.006;5.926;2023-02-23T05:34:59;67.13;;;24.33;;
70908;SDS011;58554;52.006;5.926;2023-02-23T05:37:26;67.07;;;23.55;;
70908;SDS011;58554;52.006;5.926;2023-02-23T05:39:53;64.53;;;21.53;;
70908;SDS011;58554;52.006;5.926;2023-02-23T05:42:19;65.60;;;24.02;;
70908;SDS011;58554;52.006;5.926;2023-02-23T05:44:45;65.20;;;23.15;;
70908;SDS011;58554;52.006;5.926;2023-02-23T05:47:12;65.97;;;23.27;;
70908;SDS011;58554;52.006;5.926;2023-02-23T05:49:38;65.50;;;24.00;;
70908;SDS011;58554;52.006;5.926;2023-02-23T05:52:08;66.28;;;23.52;;
70908;SDS011;58554;52.006;5.926;2023-02-23T05:54:34;71.97;;;25.33;;
70908;SDS011;58554;52.006;5.926;2023-02-23T05:57:01;70.33;;;24.90;;
70908;SDS011;58554;52.006;5.926;2023-02-23T05:59:27;64.40;;;23.60;;
70908;SDS011;58554;52.006;5.926;2023-02-23T06:01:54;69.03;;;25.13;;
70908;SDS011;58554;52.006;5.926;2023-02-23T06:04:20;69.93;;;22.33;;
70908;SDS011;58554;52.006;5.926;2023-02-23T06:06:47;66.63;;;24.43;;
70908;SDS011;58554;52.006;5.926;2023-02-23T06:09:16;65.68;;;24.30;;
70908;SDS011;58554;52.006;5.926;2023-02-23T06:11:42;72.40;;;25.42;;
70908;SDS011;58554;52.006;5.926;2023-02-23T06:14:09;63.37;;;22.70;;
70908;SDS011;58554;52.006;5.926;2023-02-23T06:16:35;69.38;;;24.95;;
70908;SDS011;58554;52.006;5.926;2023-02-23T06:19:02;71.18;;;24.35;;
70908;SDS011;58554;52.006;5.926;2023-02-23T06:21:28;63.57;;;22.63;;
70908;SDS011;58554;52.006;5.926;2023-02-23T06:23:55;61.05;;;23.40;;
70908;SDS011;58554;52.006;5.926;2023-02-23T06:26:24;64.38;;;22.75;;
70908;SDS011;58554;52.006;5.926;2023-02-23T06:28:51;65.70;;;22.90;;
70908;SDS011;58554;52.006;5.926;2023-02-23T06:31:17;62.67;;;21.93;;
70908;SDS011;58554;52.006;5.926;2023-02-23T06:33:44;64.10;;;24.08;;
70908;SDS011;58554;52.006;5.926;2023-02-23T06:36:10;62.53;;;22.57;;
70908;SDS011;58554;52.006;5.926;2023-02-23T06:38:37;66.37;;;23.00;;
70908;SDS011;58554;52.006;5.926;2023-02-23T06:41:06;65.85;;;22.83;;
70908;SDS011;58554;52.006;5.926;2023-02-23T06:43:36;66.07;;;22.57;;
70908;SDS011;58554;52.006;5.926;2023-02-23T06:46:03;65.90;;;22.70;;
70908;SDS011;58554;52.006;5.926;2023-02-23T06:48:30;70.70;;;23.45;;
70908;SDS011;58554;52.006;5.926;2023-02-23T06:50:57;68.97;;;22.60;;
70908;SDS011;58554;52.006;5.926;2023-02-23T06:53:24;68.93;;;24.00;;
70908;SDS011;58554;52.006;5.926;2023-02-23T06:55:51;71.13;;;25.57;;
70908;SDS011;58554;52.006;5.926;2023-02-23T06:58:17;68.10;;;24.37;;
70908;SDS011;58554;52.006;5.926;2023-02-23T07:00:46;66.65;;;22.67;;
70908;SDS011;58554;52.006;5.926;2023-02-23T07:03:13;68.15;;;23.70;;
70908;SDS011;58554;52.006;5.926;2023-02-23T07:05:39;63.50;;;22.67;;
70908;SDS011;58554;52.006;5.926;2023-02-23T07:08:06;66.57;;;23.85;;
70908;SDS011;58554;52.006;5.926;2023-02-23T07:10:32;63.42;;;22.92;;
70908;SDS011;58554;52.006;5.926;2023-02-23T07:12:59;61.00;;;22.83;;
70908;SDS011;58554;52.006;5.926;2023-02-23T07:15:26;61.65;;;22.48;;
70908;SDS011;58554;52.006;5.926;2023-02-23T07:17:55;64.93;;;22.63;;
70908;SDS011;58554;52.006;5.926;2023-02-23T07:20:21;60.37;;;22.73;;
70908;SDS011;58554;52.006;5.926;2023-02-23T07:22:48;62.53;;;22.75;;
70908;SDS011;58554;52.006;5.926;2023-02-23T07:25:14;64.63;;;22.10;;
70908;SDS011;58554;52.006;5.926;2023-02-23T07:27:41;56.33;;;20.00;;
70908;SDS011;58554;52.006;5.926;2023-02-23T07:30:08;60.10;;;20.65;;
70908;SDS011;58554;52.006;5.926;2023-02-23T07:32:37;62.50;;;21.47;;
70908;SDS011;58554;52.006;5.926;2023-02-23T07:35:06;50.83;;;20.43;;
70908;SDS011;58554;52.006;5.926;2023-02-23T07:37:34;60.13;;;20.80;;
70908;SDS011;58554;52.006;5.926;2023-02-23T07:40:00;63.10;;;21.87;;
70908;SDS011;58554;52.006;5.926;2023-02-23T07:42:28;61.42;;;20.75;;
70908;SDS011;58554;52.006;5.926;2023-02-23T07:44:55;59.67;;;20.80;;
70908;SDS011;58554;52.006;5.926;2023-02-23T07:47:21;60.60;;;20.43;;
70908;SDS011;58554;52.006;5.926;2023-02-23T07:49:48;54.47;;;20.02;;
70908;SDS011;58554;52.006;5.926;2023-02-23T07:52:18;52.97;;;20.27;;
70908;SDS011;58554;52.006;5.926;2023-02-23T07:54:45;55.90;;;20.43;;
70908;SDS011;58554;52.006;5.926;2023-02-23T07:57:11;52.10;;;19.27;;
70908;SDS011;58554;52.006;5.926;2023-02-23T07:59:38;54.23;;;19.93;;
70908;SDS011;58554;52.006;5.926;2023-02-23T08:02:04;58.37;;;21.00;;
70908;SDS011;58554;52.006;5.926;2023-02-23T08:04:31;58.17;;;21.05;;
70908;SDS011;58554;52.006;5.926;2023-02-23T08:06:57;58.67;;;20.30;;
70908;SDS011;58554;52.006;5.926;2023-02-23T08:09:27;56.80;;;20.50;;
70908;SDS011;58554;52.006;5.926;2023-02-23T08:11:53;60.35;;;20.55;;
70908;SDS011;58554;52.006;5.926;2023-02-23T08:14:20;57.83;;;20.40;;
70908;SDS011;58554;52.006;5.926;2023-02-23T08:16:46;56.55;;;20.42;;
70908;SDS011;58554;52.006;5.926;2023-02-23T08:19:13;56.17;;;20.30;;
70908;SDS011;58554;52.006;5.926;2023-02-23T08:21:40;55.73;;;20.20;;
70908;SDS011;58554;52.006;5.926;2023-02-23T08:24:06;55.42;;;20.10;;
70908;SDS011;58554;52.006;5.926;2023-02-23T08:26:36;59.30;;;20.07;;
70908;SDS011;58554;52.006;5.926;2023-02-23T08:29:03;59.25;;;19.75;;
70908;SDS011;58554;52.006;5.926;2023-02-23T08:31:30;61.33;;;20.30;;
70908;SDS011;58554;52.006;5.926;2023-02-23T08:33:57;60.00;;;20.10;;
70908;SDS011;58554;52.006;5.926;2023-02-23T08:36:24;57.60;;;20.03;;
70908;SDS011;58554;52.006;5.926;2023-02-23T08:38:51;57.25;;;20.23;;
70908;SDS011;58554;52.006;5.926;2023-02-23T08:41:17;58.97;;;20.70;;
70908;SDS011;58554;52.006;5.926;2023-02-23T08:43:46;55.20;;;19.55;;
70908;SDS011;58554;52.006;5.926;2023-02-23T08:46:13;60.35;;;22.10;;
70908;SDS011;58554;52.006;5.926;2023-02-23T08:48:40;55.43;;;19.77;;
70908;SDS011;58554;52.006;5.926;2023-02-23T08:51:07;54.85;;;19.13;;
70908;SDS011;58554;52.006;5.926;2023-02-23T08:53:34;56.15;;;19.65;;
70908;SDS011;58554;52.006;5.926;2023-02-23T08:56:02;55.53;;;19.17;;
70908;SDS011;58554;52.006;5.926;2023-02-23T08:58:32;57.30;;;20.15;;
70908;SDS011;58554;52.006;5.926;2023-02-23T09:01:03;61.35;;;20.55;;
70908;SDS011;58554;52.006;5.926;2023-02-23T09:03:30;57.03;;;19.65;;
70908;SDS011;58554;52.006;5.926;2023-02-23T09:06:04;57.53;;;19.93;;
70908;SDS011;58554;52.006;5.926;2023-02-23T09:08:34;58.45;;;20.67;;
70908;SDS011;58554;52.006;5.926;2023-02-23T09:11:01;53.43;;;19.33;;
70908;SDS011;58554;52.006;5.926;2023-02-23T09:13:27;55.38;;;19.83;;
70908;SDS011;58554;52.006;5.926;2023-02-23T09:15:54;54.75;;;20.55;;
70908;SDS011;58554;52.006;5.926;2023-02-23T09:18:23;55.63;;;19.53;;
70908;SDS011;58554;52.006;5.926;2023-02-23T09:20:49;52.35;;;19.35;;
70908;SDS011;58554;52.006;5.926;2023-02-23T09:23:16;55.30;;;19.10;;
70908;SDS011;58554;52.006;5.926;2023-02-23T09:25:43;56.50;;;19.83;;
70908;SDS011;58554;52.006;5.926;2023-02-23T09:28:11;55.10;;;20.17;;
70908;SDS011;58554;52.006;5.926;2023-02-23T09:30:40;52.77;;;19.60;;
70908;SDS011;58554;52.006;5.926;2023-02-23T09:33:08;55.33;;;19.60;;
70908;SDS011;58554;52.006;5.926;2023-02-23T09:35:39;53.88;;;18.95;;
70908;SDS011;58554;52.006;5.926;2023-02-23T09:38:06;50.57;;;18.93;;
70908;SDS011;58554;52.006;5.926;2023-02-23T09:40:34;55.10;;;19.95;;
70908;SDS011;58554;52.006;5.926;2023-02-23T09:43:11;49.97;;;18.17;;
70908;SDS011;58554;52.006;5.926;2023-02-23T09:45:46;49.17;;;19.45;;
70908;SDS011;58554;52.006;5.926;2023-02-23T09:48:21;48.27;;;17.77;;
70908;SDS011;58554;52.006;5.926;2023-02-23T09:50:54;53.50;;;18.52;;
70908;SDS011;58554;52.006;5.926;2023-02-23T09:53:32;49.90;;;18.30;;
70908;SDS011;58554;52.006;5.926;2023-02-23T09:56:06;51.00;;;17.00;;
70908;SDS011;58554;52.006;5.926;2023-02-23T09:58:39;52.27;;;19.90;;
70908;SDS011;58554;52.006;5.926;2023-02-23T10:01:19;50.23;;;18.40;;
70908;SDS011;58554;52.006;5.926;2023-02-23T10:04:10;47.42;;;18.30;;
70908;SDS011;58554;52.006;5.926;2023-02-23T10:06:49;50.07;;;18.30;;
70908;SDS011;58554;52.006;5.926;2023-02-23T10:09:27;51.00;;;18.40;;
70908;SDS011;58554;52.006;5.926;2023-02-23T10:12:34;53.10;;;17.92;;
70908;SDS011;58554;52.006;5.926;2023-02-23T10:15:17;52.40;;;18.23;;
70908;SDS011;58554;52.006;5.926;2023-02-23T10:18:00;53.73;;;19.63;;
70908;SDS011;58554;52.006;5.926;2023-02-23T10:20:42;47.92;;;18.30;;
70908;SDS011;58554;52.006;5.926;2023-02-23T10:23:22;52.13;;;18.30;;
70908;SDS011;58554;52.006;5.926;2023-02-23T10:25:57;46.07;;;17.03;;
70908;SDS011;58554;52.006;5.926;2023-02-23T10:28:27;50.97;;;18.65;;
70908;SDS011;58554;52.006;5.926;2023-02-23T10:31:03;54.13;;;19.03;;
70908;SDS011;58554;52.006;5.926;2023-02-23T10:33:53;49.80;;;18.30;;
70908;SDS011;58554;52.006;5.926;2023-02-23T10:36:28;53.58;;;18.67;;
70908;SDS011;58554;52.006;5.926;2023-02-23T10:39:07;51.00;;;18.10;;
70908;SDS011;58554;52.006;5.926;2023-02-23T10:41:34;47.97;;;17.13;;
70908;SDS011;58554;52.006;5.926;2023-02-23T10:44:03;50.13;;;17.05;;
70908;SDS011;58554;52.006;5.926;2023-02-23T10:46:37;49.50;;;18.27;;
70908;SDS011;58554;52.006;5.926;2023-02-23T10:49:05;56.80;;;18.23;;
70908;SDS011;58554;52.006;5.926;2023-02-23T10:51:42;55.58;;;18.67;;
70908;SDS011;58554;52.006;5.926;2023-02-23T10:57:10;47.75;;;18.05;;
70908;SDS011;58554;52.006;5.926;2023-02-23T11:02:53;47.17;;;17.93;;
70908;SDS011;58554;52.006;5.926;2023-02-23T11:05:32;47.83;;;17.58;;
70908;SDS011;58554;52.006;5.926;2023-02-23T11:10:57;45.85;;;16.33;;
70908;SDS011;58554;52.006;5.926;2023-02-23T11:13:43;46.78;;;16.92;;
70908;SDS011;58554;52.006;5.926;2023-02-23T11:16:12;43.70;;;16.10;;
70908;SDS011;58554;52.006;5.926;2023-02-23T11:18:42;46.38;;;16.75;;
70908;SDS011;58554;52.006;5.926;2023-02-23T11:21:20;46.05;;;15.70;;
70908;SDS011;58554;52.006;5.926;2023-02-23T11:23:52;43.23;;;15.37;;
70908;SDS011;58554;52.006;5.926;2023-02-23T11:26:27;46.72;;;15.95;;
70908;SDS011;58554;52.006;5.926;2023-02-23T11:29:02;44.65;;;16.23;;
70908;SDS011;58554;52.006;5.926;2023-02-23T11:31:39;39.43;;;15.63;;
70908;SDS011;58554;52.006;5.926;2023-02-23T11:34:20;41.97;;;15.70;;
70908;SDS011;58554;52.006;5.926;2023-02-23T11:36:58;46.83;;;16.77;;
70908;SDS011;58554;52.006;5.926;2023-02-23T11:39:30;42.40;;;15.63;;
70908;SDS011;58554;52.006;5.926;2023-02-23T11:44:50;43.13;;;15.37;;
70908;SDS011;58554;52.006;5.926;2023-02-23T11:47:29;45.13;;;14.77;;
70908;SDS011;58554;52.006;5.926;2023-02-23T11:49:59;46.38;;;16.15;;
70908;SDS011;58554;52.006;5.926;2023-02-23T11:52:29;45.00;;;16.00;;
70908;SDS011;58554;52.006;5.926;2023-02-23T11:54:57;41.27;;;14.57;;
70908;SDS011;58554;52.006;5.926;2023-02-23T11:57:31;40.63;;;14.57;;
70908;SDS011;58554;52.006;5.926;2023-02-23T12:00:01;39.13;;;13.82;;
70908;SDS011;58554;52.006;5.926;2023-02-23T12:02:43;39.70;;;14.77;;
70908;SDS011;58554;52.006;5.926;2023-02-23T12:05:16;40.13;;;14.38;;
70908;SDS011;58554;52.006;5.926;2023-02-23T12:07:50;37.05;;;14.07;;
70908;SDS011;58554;52.006;5.926;2023-02-23T12:10:26;43.23;;;13.73;;
70908;SDS011;58554;52.006;5.926;2023-02-23T12:13:08;43.28;;;15.15;;
70908;SDS011;58554;52.006;5.926;2023-02-23T12:15:50;40.75;;;13.70;;
70908;SDS011;58554;52.006;5.926;2023-02-23T12:18:30;38.25;;;12.98;;
70908;SDS011;58554;52.006;5.926;2023-02-23T12:21:16;38.63;;;13.70;;
70908;SDS011;58554;52.006;5.926;2023-02-23T12:24:00;39.58;;;13.38;;
70908;SDS011;58554;52.006;5.926;2023-02-23T12:26:42;40.88;;;13.02;;
70908;SDS011;58554;52.006;5.926;2023-02-23T12:29:20;35.50;;;12.33;;
70908;SDS011;58554;52.006;5.926;2023-02-23T12:31:57;34.40;;;12.40;;
70908;SDS011;58554;52.006;5.926;2023-02-23T12:34:31;32.53;;;12.07;;
70908;SDS011;58554;52.006;5.926;2023-02-23T12:37:15;35.08;;;12.38;;
70908;SDS011;58554;52.006;5.926;2023-02-23T12:39:56;37.93;;;12.30;;
70908;SDS011;58554;52.006;5.926;2023-02-23T12:42:39;37.17;;;12.27;;
70908;SDS011;58554;52.006;5.926;2023-02-23T12:45:22;40.95;;;13.57;;
70908;SDS011;58554;52.006;5.926;2023-02-23T12:48:01;32.90;;;11.47;;
70908;SDS011;58554;52.006;5.926;2023-02-23T12:50:39;31.48;;;11.95;;
70908;SDS011;58554;52.006;5.926;2023-02-23T12:53:18;36.75;;;11.90;;
70908;SDS011;58554;52.006;5.926;2023-02-23T12:58:54;27.73;;;10.55;;
70908;SDS011;58554;52.006;5.926;2023-02-23T13:01:39;33.58;;;10.52;;
70908;SDS011;58554;52.006;5.926;2023-02-23T13:04:23;25.63;;;10.00;;
70908;SDS011;58554;52.006;5.926;2023-02-23T13:07:05;25.95;;;9.40;;
70908;SDS011;58554;52.006;5.926;2023-02-23T13:09:47;24.90;;;9.85;;
70908;SDS011;58554;52.006;5.926;2023-02-23T13:12:32;23.60;;;9.20;;
70908;SDS011;58554;52.006;5.926;2023-02-23T13:15:21;25.05;;;8.85;;
70908;SDS011;58554;52.006;5.926;2023-02-23T13:18:14;24.03;;;8.53;;
70908;SDS011;58554;52.006;5.926;2023-02-23T13:20:53;23.13;;;8.47;;
70908;SDS011;58554;52.006;5.926;2023-02-23T13:23:31;25.27;;;9.10;;
70908;SDS011;58554;52.006;5.926;2023-02-23T13:26:09;22.92;;;8.57;;
70908;SDS011;58554;52.006;5.926;2023-02-23T13:28:51;19.13;;;7.67;;
70908;SDS011;58554;52.006;5.926;2023-02-23T13:31:28;20.00;;;7.20;;
70908;SDS011;58554;52.006;5.926;2023-02-23T13:34:03;21.98;;;6.93;;
70908;SDS011;58554;52.006;5.926;2023-02-23T13:36:36;18.37;;;7.13;;
70908;SDS011;58554;52.006;5.926;2023-02-23T13:39:09;16.73;;;6.50;;
70908;SDS011;58554;52.006;5.926;2023-02-23T13:42:10;19.30;;;7.45;;
70908;SDS011;58554;52.006;5.926;2023-02-23T13:44:54;17.55;;;6.25;;
70908;SDS011;58554;52.006;5.926;2023-02-23T13:47:51;16.70;;;6.90;;
70908;SDS011;58554;52.006;5.926;2023-02-23T13:50:30;17.48;;;7.38;;
70908;SDS011;58554;52.006;5.926;2023-02-23T13:53:35;21.30;;;7.40;;
70908;SDS011;58554;52.006;5.926;2023-02-23T13:56:04;19.95;;;8.00;;
70908;SDS011;58554;52.006;5.926;2023-02-23T13:58:34;17.37;;;7.03;;
70908;SDS011;58554;52.006;5.926;2023-02-23T14:01:07;20.90;;;7.83;;
70908;SDS011;58554;52.006;5.926;2023-02-23T14:03:42;22.48;;;8.00;;
70908;SDS011;58554;52.006;5.926;2023-02-23T14:06:21;21.73;;;7.60;;
70908;SDS011;58554;52.006;5.926;2023-02-23T14:08:51;21.27;;;8.50;;
70908;SDS011;58554;52.006;5.926;2023-02-23T14:11:26;20.83;;;7.82;;
70908;SDS011;58554;52.006;5.926;2023-02-23T14:14:12;22.15;;;8.65;;
70908;SDS011;58554;52.006;5.926;2023-02-23T14:20:12;22.75;;;8.30;;
70908;SDS011;58554;52.006;5.926;2023-02-23T14:23:15;21.38;;;8.50;;
70908;SDS011;58554;52.006;5.926;2023-02-23T14:26:11;20.80;;;8.30;;
70908;SDS011;58554;52.006;5.926;2023-02-23T14:28:42;21.83;;;8.50;;
70908;SDS011;58554;52.006;5.926;2023-02-23T14:31:19;19.80;;;8.20;;
70908;SDS011;58554;52.006;5.926;2023-02-23T14:33:49;20.13;;;8.03;;
70908;SDS011;58554;52.006;5.926;2023-02-23T14:36:32;20.13;;;7.82;;
70908;SDS011;58554;52.006;5.926;2023-02-23T14:39:14;20.43;;;8.10;;
70908;SDS011;58554;52.006;5.926;2023-02-23T14:41:49;23.20;;;8.23;;
70908;SDS011;58554;52.006;5.926;2023-02-23T14:44:20;21.67;;;7.78;;
70908;SDS011;58554;52.006;5.926;2023-02-23T14:46:53;21.43;;;7.80;;
70908;SDS011;58554;52.006;5.926;2023-02-23T14:49:27;21.42;;;8.00;;
70908;SDS011;58554;52.006;5.926;2023-02-23T14:52:03;24.20;;;7.68;;
70908;SDS011;58554;52.006;5.926;2023-02-23T14:54:36;19.73;;;8.33;;
70908;SDS011;58554;52.006;5.926;2023-02-23T14:57:05;19.88;;;7.97;;
70908;SDS011;58554;52.006;5.926;2023-02-23T14:59:42;20.80;;;7.93;;
70908;SDS011;58554;52.006;5.926;2023-02-23T15:02:10;21.13;;;7.87;;
70908;SDS011;58554;52.006;5.926;2023-02-23T15:04:44;22.63;;;8.50;;
70908;SDS011;58554;52.006;5.926;2023-02-23T15:07:13;20.10;;;8.23;;
70908;SDS011;58554;52.006;5.926;2023-02-23T15:09:47;20.47;;;8.80;;
70908;SDS011;58554;52.006;5.926;2023-02-23T15:12:14;22.05;;;8.55;;
70908;SDS011;58554;52.006;5.926;2023-02-23T15:14:46;23.02;;;8.85;;
70908;SDS011;58554;52.006;5.926;2023-02-23T15:17:15;22.63;;;8.47;;
70908;SDS011;58554;52.006;5.926;2023-02-23T15:19:47;24.35;;;8.80;;
70908;SDS011;58554;52.006;5.926;2023-02-23T15:22:22;20.30;;;8.45;;
70908;SDS011;58554;52.006;5.926;2023-02-23T15:24:57;25.30;;;9.10;;
70908;SDS011;58554;52.006;5.926;2023-02-23T15:27:35;22.73;;;8.55;;
70908;SDS011;58554;52.006;5.926;2023-02-23T15:30:19;21.20;;;8.27;;
70908;SDS011;58554;52.006;5.926;2023-02-23T15:32:58;22.40;;;8.87;;
70908;SDS011;58554;52.006;5.926;2023-02-23T15:35:27;19.40;;;8.10;;
70908;SDS011;58554;52.006;5.926;2023-02-23T15:37:55;21.10;;;8.88;;
70908;SDS011;58554;52.006;5.926;2023-02-23T15:40:28;19.50;;;7.67;;
70908;SDS011;58554;52.006;5.926;2023-02-23T15:42:54;20.45;;;8.55;;
70908;SDS011;58554;52.006;5.926;2023-02-23T15:45:24;17.25;;;7.65;;
70908;SDS011;58554;52.006;5.926;2023-02-23T15:48:01;18.93;;;7.37;;
70908;SDS011;58554;52.006;5.926;2023-02-23T15:50:33;20.50;;;7.60;;
70908;SDS011;58554;52.006;5.926;2023-02-23T15:53:07;21.90;;;7.87;;
70908;SDS011;58554;52.006;5.926;2023-02-23T15:55:52;20.73;;;7.50;;
70908;SDS011;58554;52.006;5.926;2023-02-23T15:58:23;20.63;;;8.00;;
70908;SDS011;58554;52.006;5.926;2023-02-23T16:00:53;20.65;;;7.70;;
70908;SDS011;58554;52.006;5.926;2023-02-23T16:03:24;21.30;;;7.33;;
70908;SDS011;58554;52.006;5.926;2023-02-23T16:05:59;20.48;;;7.82;;
70908;SDS011;58554;52.006;5.926;2023-02-23T16:08:29;20.10;;;7.57;;
70908;SDS011;58554;52.006;5.926;2023-02-23T16:11:03;17.93;;;8.07;;
70908;SDS011;58554;52.006;5.926;2023-02-23T16:13:41;25.67;;;8.80;;
70908;SDS011;58554;52.006;5.926;2023-02-23T16:16:10;19.40;;;8.60;;
70908;SDS011;58554;52.006;5.926;2023-02-23T16:18:41;21.27;;;7.23;;
70908;SDS011;58554;52.006;5.926;2023-02-23T16:21:10;23.20;;;8.57;;
70908;SDS011;58554;52.006;5.926;2023-02-23T16:23:43;20.95;;;7.75;;
70908;SDS011;58554;52.006;5.926;2023-02-23T16:26:18;26.37;;;8.00;;